Time;durP1;ratioP1;P1;durP2;ratioP2;P2;SDS_P1;SDS_P2;PMS_P1;PMS_P2;Temp;Humidity;BMP_temperature;BMP_pressure;BME280_temperature;BME280_humidity;BME280_pressure;Samples;Min_cycle;Max_cycle;Signal;HPM_P1;HPM_P2
2023/10/18 00:02:53;;;;;;;3.70;2.22;;;;;;;23.04;55.45;101326.50;5034947;28;20056;-49
2023/10/18 00:05:21;;;;;;;3.20;2.20;;;;;;;23.02;55.32;101324.06;5033093;28;20356;-51
2023/10/18 00:07:48;;;;;;;3.60;2.35;;;;;;;23.01;55.49;101319.63;5033950;28;20035;-51
2023/10/18 00:10:17;;;;;;;3.17;2.10;;;;;;;22.98;55.26;101316.66;5033381;28;20729;-50
2023/10/18 00:12:44;;;;;;;4.20;2.05;;;;;;;22.99;55.46;101318.28;5032878;28;20623;-51
2023/10/18 00:15:11;;;;;;;3.13;2.30;;;;;;;22.97;55.57;101313.06;5012324;28;20049;-51
2023/10/18 00:17:37;;;;;;;3.33;2.10;;;;;;;22.95;55.35;101309.78;5032751;28;20106;-55
2023/10/18 00:20:08;;;;;;;4.38;2.30;;;;;;;22.95;55.35;101303.44;5013501;28;20032;-54
2023/10/18 00:22:34;;;;;;;2.58;2.10;;;;;;;22.91;55.16;101300.47;5033138;28;20447;-54
2023/10/18 00:25:00;;;;;;;2.80;2.13;;;;;;;22.89;55.40;101291.63;5034327;28;20051;-54
2023/10/18 00:27:25;;;;;;;2.63;1.90;;;;;;;22.88;55.24;101293.59;5031773;28;20040;-54
2023/10/18 00:29:54;;;;;;;4.57;2.42;;;;;;;22.87;54.96;101296.66;5034125;28;20082;-53
2023/10/18 00:32:21;;;;;;;2.92;2.10;;;;;;;22.86;55.13;101295.81;5012013;28;20119;-50
2023/10/18 00:34:47;;;;;;;3.17;2.30;;;;;;;22.83;55.20;101285.38;5034136;28;20044;-50
2023/10/18 00:37:13;;;;;;;2.72;2.00;;;;;;;22.82;55.08;101288.44;5025951;28;20053;-50
2023/10/18 00:39:39;;;;;;;3.97;2.00;;;;;;;22.83;54.98;101284.53;5028446;28;20112;-54
2023/10/18 00:42:38;;;;;;;5.25;2.17;;;;;;;22.84;55.25;101281.47;5030700;28;20052;-55
2023/10/18 00:45:02;;;;;;;3.28;2.17;;;;;;;22.85;55.05;101279.56;5026918;28;20048;-52
2023/10/18 00:47:29;;;;;;;3.08;2.42;;;;;;;22.87;54.95;101280.09;5030762;28;20036;-55
2023/10/18 00:49:54;;;;;;;2.95;2.40;;;;;;;22.87;54.66;101280.88;5033395;28;20032;-54
2023/10/18 00:52:23;;;;;;;2.63;2.05;;;;;;;22.86;54.94;101284.78;5028969;28;20189;-54
2023/10/18 00:54:48;;;;;;;3.58;2.22;;;;;;;22.84;54.73;101278.72;5031224;28;20756;-53
2023/10/18 00:57:19;;;;;;;3.08;2.30;;;;;;;22.84;54.66;101272.38;5029749;28;20118;-54
2023/10/18 00:59:45;;;;;;;3.45;2.40;;;;;;;22.82;54.78;101280.13;5032477;28;20486;-49
2023/10/18 01:02:11;;;;;;;2.20;1.98;;;;;;;22.78;54.67;101274.38;5030866;28;20053;-50
2023/10/18 01:04:37;;;;;;;2.80;1.98;;;;;;;22.76;54.81;101280.22;5030501;28;20102;-50
2023/10/18 01:07:11;;;;;;;3.55;2.15;;;;;;;22.72;54.65;101276.41;5030783;28;20036;-51
2023/10/18 01:09:37;;;;;;;2.38;2.00;;;;;;;22.70;54.46;101273.13;4998391;28;20616;-48
2023/10/18 01:12:03;;;;;;;2.88;2.10;;;;;;;22.69;54.67;101259.63;5033998;28;20320;-51
2023/10/18 01:14:28;;;;;;;2.50;2.05;;;;;;;22.66;54.71;101251.91;5034689;28;20382;-50
2023/10/18 01:16:54;;;;;;;2.08;1.88;;;;;;;22.65;55.01;101244.75;5034770;28;20036;-48
2023/10/18 01:19:19;;;;;;;2.45;2.05;;;;;;;22.64;55.01;101246.69;5034193;28;20622;-51
2023/10/18 01:21:51;;;;;;;2.45;2.00;;;;;;;22.63;54.93;101245.03;5036102;28;20032;-49
2023/10/18 01:24:17;;;;;;;3.88;2.10;;;;;;;22.60;54.56;101243.72;5036052;28;20036;-51
2023/10/18 01:26:43;;;;;;;2.20;1.92;;;;;;;22.59;54.46;101242.06;5036235;28;20032;-51
2023/10/18 01:29:09;;;;;;;2.80;2.40;;;;;;;22.58;54.71;101240.41;5033496;28;20553;-54
2023/10/18 01:31:36;;;;;;;4.68;1.92;;;;;;;22.57;54.67;101235.19;5035205;28;20047;-55
2023/10/18 01:34:03;;;;;;;2.42;2.20;;;;;;;22.55;54.76;101227.22;5033753;28;20480;-54
2023/10/18 01:36:32;;;;;;;3.25;2.05;;;;;;;22.54;54.65;101228.34;5034782;28;20036;-54
2023/10/18 01:38:57;;;;;;;2.28;1.92;;;;;;;22.52;54.99;101227.00;5032873;28;20412;-49
2023/10/18 01:41:26;;;;;;;2.63;2.05;;;;;;;22.50;54.97;101219.00;5033601;28;20671;-51
2023/10/18 01:43:52;;;;;;;2.13;1.98;;;;;;;22.49;54.55;101219.28;5034333;28;20062;-51
2023/10/18 01:46:18;;;;;;;2.45;2.13;;;;;;;22.47;54.67;101216.81;5033383;28;20044;-50
2023/10/18 01:48:50;;;;;;;3.97;2.10;;;;;;;22.47;54.96;101210.50;5033159;28;20308;-48
2023/10/18 01:51:16;;;;;;;2.72;2.13;;;;;;;22.46;54.84;101203.31;5033345;28;20051;-51
2023/10/18 01:53:43;;;;;;;2.30;2.10;;;;;;;22.42;54.69;101203.91;5034012;28;20036;-49
2023/10/18 01:56:09;;;;;;;2.20;2.00;;;;;;;22.42;54.68;101198.38;5034403;28;20040;-50
2023/10/18 01:58:35;;;;;;;2.40;2.05;;;;;;;22.41;54.87;101193.97;5034553;28;20037;-48
2023/10/18 02:01:07;;;;;;;2.20;1.92;;;;;;;22.40;54.70;101197.03;5034315;28;20622;-49
2023/10/18 02:03:44;;;;;;;2.65;2.10;;;;;;;22.39;54.61;101190.72;5033686;28;20057;-50
2023/10/18 02:06:13;;;;;;;2.65;1.98;;;;;;;22.39;54.71;101185.19;5004283;28;20295;-51
2023/10/18 02:08:40;;;;;;;3.30;2.00;;;;;;;22.39;54.60;101189.88;5035199;28;20111;-48
2023/10/18 02:11:08;;;;;;;2.03;1.83;;;;;;;22.38;54.57;101188.25;5034401;28;20503;-49
2023/10/18 02:13:34;;;;;;;2.85;2.30;;;;;;;22.35;54.58;101184.09;5034067;28;20037;-55
2023/10/18 02:15:59;;;;;;;3.42;2.33;;;;;;;22.35;54.43;101184.09;5034329;28;20646;-54
2023/10/18 02:18:26;;;;;;;2.47;2.17;;;;;;;22.33;54.50;101180.00;5033635;28;20024;-50
2023/10/18 02:20:52;;;;;;;3.03;2.13;;;;;;;22.33;54.53;101180.84;5032526;28;20384;-54
2023/10/18 02:23:21;;;;;;;6.28;2.05;;;;;;;22.31;54.30;101176.72;5032208;28;20032;-51
2023/10/18 02:25:48;;;;;;;3.22;2.20;;;;;;;22.30;54.43;101172.31;5033373;28;20948;-52
2023/10/18 02:28:24;;;;;;;2.85;2.00;;;;;;;22.27;54.52;101174.56;5034961;28;20477;-49
2023/10/18 02:30:57;;;;;;;3.90;1.95;;;;;;;22.26;54.45;101174.84;5024599;28;20073;-51
2023/10/18 02:33:42;;;;;;;2.20;2.00;;;;;;;22.26;54.52;101167.38;5034561;28;20066;-51
2023/10/18 02:36:11;;;;;;;2.38;2.03;;;;;;;22.25;54.27;101168.50;5033959;28;20032;-56
2023/10/18 02:38:38;;;;;;;3.42;2.33;;;;;;;22.25;54.44;101159.41;5032417;28;20056;-55
2023/10/18 02:44:07;;;;;;;2.42;1.92;;;;;;;22.23;54.22;101148.66;4977102;28;20556;-54
2023/10/18 02:46:33;;;;;;;2.40;1.90;;;;;;;22.23;54.27;101143.16;5032928;28;20443;-54
2023/10/18 02:49:00;;;;;;;3.00;2.20;;;;;;;22.21;54.18;101139.84;5032813;28;20028;-56
2023/10/18 02:51:28;;;;;;;3.10;1.90;;;;;;;22.21;54.31;101134.34;5033120;28;20290;-54
2023/10/18 02:54:21;;;;;;;3.47;2.50;;;;;;;22.21;54.18;101130.78;5013873;28;20625;-54
2023/10/18 02:56:53;;;;;;;2.35;2.15;;;;;;;22.20;54.00;101134.66;5031578;28;20070;-55
2023/10/18 02:59:24;;;;;;;2.40;2.20;;;;;;;22.19;53.87;101127.47;5010865;28;20102;-55
2023/10/18 03:01:54;;;;;;;2.20;2.00;;;;;;;22.18;53.94;101134.94;5024558;28;20094;-55
2023/10/18 03:04:22;;;;;;;2.78;2.30;;;;;;;22.16;53.73;101130.81;5010279;28;20131;-55
2023/10/18 03:06:50;;;;;;;2.13;1.92;;;;;;;22.15;54.12;101118.97;5033392;28;20128;-55
2023/10/18 03:12:01;;;;;;;2.95;2.25;;;;;;;22.15;54.07;101101.59;5025323;28;20623;-55
2023/10/18 03:14:39;;;;;;;3.45;2.05;;;;;;;22.15;53.83;101101.59;5035941;28;20039;-55
2023/10/18 03:17:41;;;;;;;4.35;2.28;;;;;;;22.12;54.31;101092.78;5030769;28;20309;-56
2023/10/18 03:20:01;;;;;;;3.03;2.10;;;;;;;22.11;54.05;101098.63;5022846;28;20665;-55
2023/10/18 03:22:31;;;;;;;4.43;2.00;;;;;;;22.11;53.93;101098.63;5013487;28;20588;-55
2023/10/18 03:24:59;;;;;;;2.63;1.95;;;;;;;22.10;53.94;101088.69;5035033;28;20491;-56
2023/10/18 03:27:29;;;;;;;3.30;1.98;;;;;;;22.08;54.24;101085.41;5035520;28;20029;-55
2023/10/18 03:30:12;;;;;;;2.97;2.38;;;;;;;22.07;53.89;101079.06;5015296;28;20040;-51
2023/10/18 03:32:38;;;;;;;2.20;2.08;;;;;;;22.06;54.23;101076.59;5032694;28;20029;-51
2023/10/18 03:35:08;;;;;;;2.30;2.10;;;;;;;22.06;53.75;101069.16;5014205;28;20037;-49
2023/10/18 03:37:33;;;;;;;2.70;2.20;;;;;;;22.07;53.82;101064.44;4992286;28;20485;-56
2023/10/18 03:40:08;;;;;;;2.72;2.20;;;;;;;22.05;53.81;101064.75;5032343;28;20139;-56
2023/10/18 03:42:33;;;;;;;3.70;2.20;;;;;;;22.05;53.93;101056.47;5014381;28;21199;-56
2023/10/18 03:45:10;;;;;;;3.85;2.28;;;;;;;22.04;53.74;101057.56;5035432;28;20097;-52
2023/10/18 03:47:39;;;;;;;3.35;2.10;;;;;;;22.05;54.14;101058.41;5032141;28;20047;-52
2023/10/18 03:50:15;;;;;;;2.60;2.20;;;;;;;22.02;54.00;101048.75;5033954;28;20352;-56
2023/10/18 03:52:41;;;;;;;4.80;2.38;;;;;;;22.01;53.76;101055.44;5013312;28;20028;-51
2023/10/18 03:55:17;;;;;;;5.60;2.40;;;;;;;22.00;53.59;101052.94;5034887;28;20021;-52
2023/10/18 03:57:43;;;;;;;4.07;2.40;;;;;;;22.00;53.77;101050.19;5031286;28;20040;-45
2023/10/18 04:03:07;;;;;;;12.77;2.78;;;;;;;22.07;54.83;101040.44;5024430;28;20625;-46
2023/10/18 04:05:45;;;;;;;7.07;2.15;;;;;;;22.16;55.57;101039.72;5033815;28;20036;-46
2023/10/18 04:08:15;;;;;;;7.97;2.13;;;;;;;22.20;55.42;101038.84;5032481;28;20070;-47
2023/10/18 04:10:46;;;;;;;5.05;2.33;;;;;;;22.24;55.00;101042.66;5027404;28;21490;-46
2023/10/18 04:13:12;;;;;;;7.78;2.50;;;;;;;22.28;54.85;101024.34;5032260;28;20361;-41
2023/10/18 04:15:39;;;;;;;5.72;2.53;;;;;;;22.33;55.14;101030.91;5032844;28;20063;-46
2023/10/18 04:20:33;;;;;;;4.18;2.00;;;;;;;22.41;54.56;101033.81;5033363;28;20660;-42
2023/10/18 04:23:00;;;;;;;2.80;2.28;;;;;;;22.44;55.01;101026.91;5032053;28;20032;-44
2023/10/18 04:25:32;;;;;;;2.88;2.50;;;;;;;22.47;54.95;101037.31;5035777;28;20185;-48
2023/10/18 04:27:58;;;;;;;2.58;2.10;;;;;;;22.50;54.59;101030.38;5030517;28;20142;-43
2023/10/18 04:30:24;;;;;;;2.78;2.25;;;;;;;22.52;54.63;101022.59;5032039;28;20067;-43
2023/10/18 04:33:14;;;;;;;3.15;2.30;;;;;;;22.53;54.39;101005.72;5030857;28;20036;-44
2023/10/18 04:35:46;;;;;;;4.22;2.05;;;;;;;22.55;54.43;100997.13;5031675;28;20032;-45
2023/10/18 04:38:22;;;;;;;4.05;2.60;;;;;;;22.58;54.33;101000.09;5030622;28;20044;-46
2023/10/18 04:40:55;;;;;;;2.97;2.00;;;;;;;22.59;53.98;100998.19;5031194;28;20036;-41
2023/10/18 04:43:27;;;;;;;2.15;2.00;;;;;;;22.62;54.13;100999.50;5031103;28;20082;-43
2023/10/18 04:45:57;;;;;;;2.53;2.33;;;;;;;22.60;53.90;100989.59;5035208;28;20082;-42
2023/10/18 04:48:46;;;;;;;2.90;2.35;;;;;;;22.63;53.66;100993.66;5033955;28;20032;-45
2023/10/18 04:51:07;;;;;;;2.58;2.03;;;;;;;22.64;53.75;100983.47;5014834;28;20052;-45
2023/10/18 04:53:33;;;;;;;4.30;2.20;;;;;;;22.65;53.95;100977.63;5035106;28;21508;-45
2023/10/18 04:55:58;;;;;;;4.30;2.38;;;;;;;22.68;53.57;100967.91;5037582;28;20032;-44
2023/10/18 04:58:29;;;;;;;3.20;2.05;;;;;;;22.65;53.57;100969.34;5034804;28;20032;-45
2023/10/18 05:00:57;;;;;;;2.78;2.20;;;;;;;22.64;53.35;100967.69;5027872;28;20048;-45
2023/10/18 05:03:32;;;;;;;2.45;2.25;;;;;;;22.65;53.72;100965.75;5034704;28;20049;-44
2023/10/18 05:05:57;;;;;;;3.75;2.28;;;;;;;22.65;53.62;100958.28;5027738;28;20040;-52
2023/10/18 05:08:23;;;;;;;4.15;2.10;;;;;;;22.66;53.43;100945.28;5015499;28;20419;-44
2023/10/18 05:10:52;;;;;;;3.47;2.35;;;;;;;22.69;53.75;100947.44;5037315;28;21591;-50
2023/10/18 05:13:19;;;;;;;3.25;2.47;;;;;;;22.69;53.55;100944.69;5035032;28;20546;-47
2023/10/18 05:15:45;;;;;;;2.55;2.30;;;;;;;22.70;53.26;100940.81;5034128;28;20489;-47
2023/10/18 05:18:16;;;;;;;4.00;2.10;;;;;;;22.69;53.41;100939.16;5037009;28;20031;-53
2023/10/18 05:20:46;;;;;;;2.45;2.20;;;;;;;22.70;53.31;100927.78;5036624;28;20070;-46
2023/10/18 05:23:32;;;;;;;3.67;2.50;;;;;;;22.71;53.45;100934.13;5033661;28;20075;-51
2023/10/18 05:26:08;;;;;;;2.50;2.30;;;;;;;22.70;53.56;100924.22;5034526;28;20360;-42
2023/10/18 05:28:47;;;;;;;3.75;2.10;;;;;;;22.71;53.39;100932.19;5034959;28;20032;-51
2023/10/18 05:34:02;;;;;;;3.60;2.20;;;;;;;22.70;53.28;100915.94;5037545;28;20098;-52
2023/10/18 05:41:59;;;;;;;3.85;2.60;;;;;;;22.72;53.00;100920.03;5034568;28;20047;-48
2023/10/18 05:44:25;;;;;;;3.03;2.42;;;;;;;22.71;53.18;100920.31;5035107;28;20480;-48
2023/10/18 05:46:50;;;;;;;3.15;2.30;;;;;;;22.71;53.05;100918.38;5034396;28;20043;-49
2023/10/18 05:49:16;;;;;;;3.53;2.80;;;;;;;22.72;52.64;100908.97;5029749;28;20590;-51
2023/10/18 05:51:51;;;;;;;3.22;2.38;;;;;;;22.73;51.88;100907.84;5014363;28;20044;-53
2023/10/18 05:54:24;;;;;;;2.75;2.30;;;;;;;22.73;51.73;100905.09;5034284;28;20076;-53
2023/10/18 05:56:51;;;;;;;3.30;2.40;;;;;;;22.75;51.40;100905.59;5038616;28;21656;-50
2023/10/18 06:01:58;;;;;;;2.67;2.45;;;;;;;22.90;51.49;100889.81;5034646;28;20044;-53
2023/10/18 06:04:24;;;;;;;66.90;5.60;;;;;;;23.01;51.42;100888.47;5036544;28;20046;-56
2023/10/18 06:06:51;;;;;;;6.30;2.30;;;;;;;23.10;51.39;100884.97;5024236;28;20036;-57
2023/10/18 06:09:32;;;;;;;13.52;2.88;;;;;;;23.16;51.57;100883.72;5034307;28;20168;-56
2023/10/18 06:12:00;;;;;;;5.95;2.22;;;;;;;23.23;51.18;100881.38;5033805;28;20049;-56
2023/10/18 06:14:33;;;;;;;4.97;2.17;;;;;;;23.30;51.37;100872.66;5034780;28;20066;-56
2023/10/18 06:17:19;;;;;;;6.07;2.53;;;;;;;23.39;51.32;100879.09;5034091;28;20024;-57
2023/10/18 06:19:45;;;;;;;3.58;2.30;;;;;;;23.49;51.01;100889.09;5034440;28;20115;-57
2023/10/18 06:22:15;;;;;;;4.22;2.22;;;;;;;23.55;50.95;100874.81;5032127;28;20298;-56
2023/10/18 06:24:43;;;;;;;6.50;2.50;;;;;;;23.61;50.75;100877.47;5031661;28;20040;-57
2023/10/18 06:27:15;;;;;;;3.97;2.20;;;;;;;23.61;50.89;100871.94;5033565;28;20290;-56
2023/10/18 06:29:42;;;;;;;5.15;2.20;;;;;;;23.53;50.77;100866.03;5034152;28;21189;-56
2023/10/18 06:32:09;;;;;;;4.05;2.08;;;;;;;23.47;51.20;100864.50;5034448;28;20044;-56
2023/10/18 06:34:34;;;;;;;6.55;2.20;;;;;;;23.46;51.00;100860.09;5033818;28;20380;-56
2023/10/18 06:37:01;;;;;;;4.38;2.50;;;;;;;23.43;51.21;100865.44;5034533;28;20037;-56
2023/10/18 06:39:34;;;;;;;5.40;2.22;;;;;;;23.43;51.08;100857.94;5033316;28;20036;-55
2023/10/18 06:41:59;;;;;;;3.72;2.22;;;;;;;23.43;51.10;100848.84;5034864;28;21676;-47
2023/10/18 06:44:29;;;;;;;3.95;1.80;;;;;;;23.41;51.21;100860.22;5033608;28;20133;-47
2023/10/18 06:46:55;;;;;;;4.28;2.45;;;;;;;23.41;50.70;100851.94;5035009;28;20477;-47
2023/10/18 06:49:20;;;;;;;5.47;2.10;;;;;;;23.39;50.89;100851.44;5032750;28;20036;-49
2023/10/18 06:51:50;;;;;;;4.13;2.40;;;;;;;23.38;50.83;100838.72;5046827;28;20170;-47
2023/10/18 06:54:23;;;;;;;4.13;2.30;;;;;;;23.34;50.84;100835.75;5034557;28;20028;-50
2023/10/18 06:56:53;;;;;;;3.08;2.13;;;;;;;23.32;50.85;100838.06;5016828;28;20032;-49
2023/10/18 06:59:25;;;;;;;9.15;2.53;;;;;;;23.30;50.39;100840.31;5034463;28;20032;-46
2023/10/18 07:02:00;;;;;;;2.60;2.13;;;;;;;23.28;50.45;100837.03;5034650;28;20124;-48
2023/10/18 07:04:34;;;;;;;;;;;;;;;23.27;50.52;100834.56;5035822;28;21918;-47
2023/10/18 07:07:00;;;;;;;4.95;2.10;;;;;;;23.27;50.42;100821.56;5040622;28;19978;-49
2023/10/18 07:09:36;;;;;;;2.55;2.25;;;;;;;23.23;50.25;100826.91;5018095;28;20036;-47
2023/10/18 07:12:10;;;;;;;4.03;2.30;;;;;;;23.20;50.72;100824.78;5003654;28;20476;-47
2023/10/18 07:14:36;;;;;;;2.25;2.05;;;;;;;23.18;50.33;100827.03;5031608;28;20047;-48
2023/10/18 07:17:03;;;;;;;3.83;2.20;;;;;;;23.16;50.44;100832.03;5035364;28;20472;-48
2023/10/18 07:19:33;;;;;;;4.05;2.30;;;;;;;23.15;50.85;100824.88;5036150;28;20689;-47
2023/10/18 07:22:05;;;;;;;4.03;2.20;;;;;;;23.15;50.28;100807.44;5031472;28;20047;-49
2023/10/18 07:24:38;;;;;;;3.40;2.10;;;;;;;23.16;50.59;100817.38;5037191;28;20032;-47
2023/10/18 07:27:04;;;;;;;6.18;2.40;;;;;;;23.18;50.61;100813.19;5034303;28;20064;-48
2023/10/18 07:29:31;;;;;;;2.88;2.45;;;;;;;23.21;50.27;100814.53;5032119;28;20404;-47
2023/10/18 07:31:59;;;;;;;5.13;2.55;;;;;;;23.21;50.17;100812.59;5032202;28;20223;-49
2023/10/18 07:34:32;;;;;;;2.47;2.15;;;;;;;23.22;50.46;100810.63;5031944;28;20033;-48
2023/10/18 07:37:16;;;;;;;6.80;2.47;;;;;;;23.20;50.42;100807.34;5032483;28;21965;-46
2023/10/18 07:39:42;;;;;;;3.17;2.17;;;;;;;23.19;50.49;100802.97;5017372;28;20058;-47
2023/10/18 07:42:08;;;;;;;5.45;2.28;;;;;;;23.16;50.53;100807.16;5032126;28;20044;-46
2023/10/18 07:44:33;;;;;;;3.60;2.22;;;;;;;23.14;50.60;100797.50;5037316;28;20582;-47
2023/10/18 07:46:59;;;;;;;3.70;2.22;;;;;;;23.11;50.48;100801.72;5031696;28;20456;-46
2023/10/18 07:49:24;;;;;;;2.22;2.00;;;;;;;23.10;50.58;100796.53;5035790;28;20036;-46
2023/10/18 07:51:49;;;;;;;2.72;2.10;;;;;;;23.08;50.28;100786.59;5030970;28;20038;-46
2023/10/18 07:54:16;;;;;;;5.45;2.20;;;;;;;23.09;50.41;100781.91;5032631;28;20409;-47
2023/10/18 07:56:53;;;;;;;2.90;2.13;;;;;;;23.07;50.18;100770.31;5031875;28;20036;-47
2023/10/18 07:59:32;;;;;;;2.70;2.40;;;;;;;23.05;50.32;100776.16;5031712;28;20488;-47
2023/10/18 08:02:23;;;;;;;6.72;2.15;;;;;;;23.04;49.98;100771.78;5030621;28;20041;-49
2023/10/18 08:04:50;;;;;;;2.83;2.00;;;;;;;23.04;50.27;100771.78;5031207;28;20385;-49
2023/10/18 08:07:19;;;;;;;4.35;2.08;;;;;;;23.02;50.02;100768.50;5032195;28;20028;-49
2023/10/18 08:09:48;;;;;;;3.17;2.40;;;;;;;23.02;49.62;100757.44;5033018;28;20419;-50
2023/10/18 08:12:33;;;;;;;4.63;2.47;;;;;;;22.99;49.40;100751.72;5031507;28;20429;-48
2023/10/18 08:14:59;;;;;;;4.80;2.67;;;;;;;22.95;49.48;100759.81;5026536;28;20043;-48
2023/10/18 08:22:52;;;;;;;11.88;2.88;;;;;;;22.92;50.10;100761.25;5032137;28;19927;-52
2023/10/18 08:25:24;;;;;;;12.02;3.60;;;;;;;22.92;50.17;100757.69;5035240;28;20052;-48
2023/10/18 08:27:51;;;;;;;21.23;6.65;;;;;;;22.90;50.08;100760.75;5031942;28;20035;-49
2023/10/18 08:33:03;;;;;;;21.67;8.52;;;;;;;22.90;50.01;100730.34;5032450;28;20094;-51
2023/10/18 08:35:28;;;;;;;18.67;7.45;;;;;;;22.90;49.95;100726.78;5015703;28;20036;-49
2023/10/18 08:37:54;;;;;;;19.33;7.97;;;;;;;22.90;49.57;100716.53;5031139;28;20043;-48
2023/10/18 08:40:36;;;;;;;13.57;5.75;;;;;;;22.91;49.86;100726.47;5032099;28;20071;-50
2023/10/18 08:43:23;;;;;;;9.98;5.07;;;;;;;22.89;49.83;100714.94;5034931;28;20032;-50
2023/10/18 08:45:50;;;;;;;13.55;5.60;;;;;;;22.91;49.72;100712.66;5036279;28;20036;-51
2023/10/18 08:48:27;;;;;;;13.18;6.88;;;;;;;22.90;49.79;100711.00;5033255;28;20036;-50
2023/10/18 08:50:55;;;;;;;16.13;6.22;;;;;;;22.92;50.09;100717.03;5032371;28;20048;-50
2023/10/18 08:53:23;;;;;;;13.98;6.00;;;;;;;22.92;50.00;100706.00;5031347;28;20195;-48
2023/10/18 08:55:52;;;;;;;32.67;7.68;;;;;;;22.90;50.01;100696.38;5030723;28;20050;-49
2023/10/18 08:58:20;;;;;;;12.70;5.43;;;;;;;22.90;49.91;100704.69;5032901;28;20047;-49
2023/10/18 09:03:20;;;;;;;;;;;;;;;22.86;50.12;100687.91;5020336;28;20053;-50
2023/10/18 09:05:48;;;;;;;20.30;6.05;;;;;;;22.87;49.76;100681.25;5012584;28;20400;-49
2023/10/18 09:08:19;;;;;;;18.15;6.18;;;;;;;22.86;50.07;100689.88;5011219;28;21788;-48
2023/10/18 09:10:54;;;;;;;22.13;6.13;;;;;;;22.85;50.01;100688.22;4994942;28;20658;-48
2023/10/18 09:16:01;;;;;;;21.08;5.43;;;;;;;22.87;49.98;100680.44;5012864;28;19931;-47
2023/10/18 09:18:30;;;;;;;22.50;5.53;;;;;;;22.87;50.03;100670.19;5010741;28;20581;-48
2023/10/18 09:21:07;;;;;;;27.67;5.63;;;;;;;22.86;49.92;100657.50;5012327;28;20094;-52
2023/10/18 09:23:32;;;;;;;18.33;5.18;;;;;;;22.86;49.70;100668.56;4996015;28;20071;-49
2023/10/18 09:26:13;;;;;;;19.52;5.25;;;;;;;22.86;50.10;100657.50;5012446;28;20090;-49
2023/10/18 09:28:41;;;;;;;17.42;5.10;;;;;;;22.85;49.89;100666.13;5011971;28;20508;-50
2023/10/18 09:31:11;;;;;;;15.30;4.85;;;;;;;22.84;49.87;100651.47;5011624;28;20058;-50
2023/10/18 09:33:48;;;;;;;18.20;5.00;;;;;;;22.84;50.13;100645.16;5015231;28;22226;-50
2023/10/18 09:36:19;;;;;;;13.05;4.68;;;;;;;22.84;50.08;100632.13;5013715;28;20056;-47
2023/10/18 09:38:45;;;;;;;10.80;4.30;;;;;;;22.84;49.85;100631.34;4997107;28;20555;-49
2023/10/18 09:41:11;;;;;;;9.85;3.90;;;;;;;22.85;50.08;100619.16;5015279;28;20545;-47
2023/10/18 09:43:37;;;;;;;14.00;4.57;;;;;;;22.83;50.12;100622.25;5014872;28;20041;-48
2023/10/18 09:46:04;;;;;;;9.70;3.55;;;;;;;22.84;50.20;100600.94;5015543;28;20037;-48
2023/10/18 09:48:37;;;;;;;10.57;3.83;;;;;;;22.82;49.93;100594.91;5013836;28;20498;-47
2023/10/18 09:51:09;;;;;;;7.95;3.58;;;;;;;22.85;50.06;100591.53;4998281;28;21179;-48
2023/10/18 09:53:49;;;;;;;11.10;4.10;;;;;;;22.85;50.25;100591.53;5014393;28;20231;-48
2023/10/18 09:56:18;;;;;;;6.95;3.40;;;;;;;22.87;49.92;100589.28;5012813;28;21315;-46
2023/10/18 09:58:47;;;;;;;8.07;3.40;;;;;;;22.87;49.96;100586.50;5005838;28;20619;-46
2023/10/18 10:02:07;;;;;;;9.32;3.50;;;;;;;22.87;50.04;100576.25;4996885;28;20037;-47
2023/10/18 10:04:04;;;;;;;9.38;3.20;;;;;;;22.88;49.96;100574.31;4992263;28;20073;-50
2023/10/18 10:06:29;;;;;;;9.30;3.63;;;;;;;22.89;50.11;100579.53;5000579;28;20154;-48
2023/10/18 10:09:31;;;;;;;8.10;3.20;;;;;;;22.89;50.29;100570.41;5005685;28;20559;-47
2023/10/18 10:11:48;;;;;;;8.52;3.13;;;;;;;22.90;50.16;100572.84;5005437;28;20046;-48
2023/10/18 10:14:16;;;;;;;8.57;3.97;;;;;;;22.91;50.01;100559.88;5007328;28;20045;-48
2023/10/18 10:16:52;;;;;;;6.82;3.00;;;;;;;22.92;50.47;100564.25;5012606;28;20048;-47
2023/10/18 10:19:23;;;;;;;5.97;3.00;;;;;;;22.92;50.04;100555.97;5011745;28;20022;-50
2023/10/18 10:21:49;;;;;;;8.80;3.03;;;;;;;22.94;50.18;100555.66;5010531;28;20044;-45
2023/10/18 10:24:31;;;;;;;5.57;2.78;;;;;;;22.94;50.45;100553.69;4999315;28;20485;-48
2023/10/18 10:27:27;;;;;;;5.47;2.72;;;;;;;22.93;50.25;100546.56;5014195;28;20477;-47
2023/10/18 10:32:58;;;;;;;4.38;2.63;;;;;;;22.96;50.07;100532.09;5002311;28;20044;-48
2023/10/18 10:35:24;;;;;;;6.50;2.75;;;;;;;22.96;50.36;100532.09;5025099;28;20497;-48
2023/10/18 10:38:18;;;;;;;5.50;2.85;;;;;;;22.96;50.19;100528.53;4996270;28;20195;-50
2023/10/18 10:41:04;;;;;;;8.27;2.83;;;;;;;22.99;50.10;100523.19;4998551;28;20633;-47
2023/10/18 10:43:50;;;;;;;5.50;2.90;;;;;;;22.98;50.42;100507.72;5002384;28;20037;-47
2023/10/18 10:46:37;;;;;;;5.60;2.40;;;;;;;22.97;50.47;100497.78;5014463;28;21316;-47
2023/10/18 10:49:06;;;;;;;5.03;2.78;;;;;;;22.98;50.36;100502.19;5013847;28;20440;-47
2023/10/18 10:51:37;;;;;;;3.83;2.47;;;;;;;22.98;50.71;100495.84;5011472;28;20033;-48
2023/10/18 10:54:06;;;;;;;5.10;2.65;;;;;;;22.96;50.52;100482.34;5007320;28;20478;-48
2023/10/18 10:56:32;;;;;;;4.50;2.60;;;;;;;22.97;50.68;100470.16;5014683;28;20116;-47
2023/10/18 10:59:03;;;;;;;4.28;2.72;;;;;;;22.97;50.77;100456.34;5012001;28;20036;-49
2023/10/18 11:04:57;;;;;;;6.28;3.40;;;;;;;22.98;51.01;100455.22;5028592;28;20768;-47
2023/10/18 11:07:24;;;;;;;5.35;2.97;;;;;;;22.98;50.84;100446.94;5014133;28;20059;-48
2023/10/18 11:09:59;;;;;;;4.45;2.65;;;;;;;22.99;50.75;100456.03;4991660;28;20092;-50
2023/10/18 11:12:27;;;;;;;3.42;2.70;;;;;;;22.99;50.73;100450.50;5013898;28;20033;-49
2023/10/18 11:14:53;;;;;;;5.45;2.50;;;;;;;22.99;51.04;100439.44;5013282;28;20210;-47
2023/10/18 11:17:23;;;;;;;5.78;2.88;;;;;;;22.99;51.23;100436.69;5012850;28;20596;-47
2023/10/18 11:19:53;;;;;;;3.65;2.42;;;;;;;22.99;51.24;100426.47;5013410;28;20024;-49
2023/10/18 11:22:20;;;;;;;4.38;2.45;;;;;;;23.00;51.03;100424.50;5012109;28;21916;-48
2023/10/18 11:24:50;;;;;;;3.75;2.60;;;;;;;23.00;50.93;100414.25;5009666;28;20584;-50
2023/10/18 11:27:22;;;;;;;4.57;2.40;;;;;;;23.02;51.17;100398.16;5012143;28;20474;-48
2023/10/18 11:29:52;;;;;;;4.00;2.65;;;;;;;23.04;51.20;100395.06;5011178;28;21513;-50
2023/10/18 11:32:27;;;;;;;7.03;2.50;;;;;;;23.02;50.94;100387.09;5006885;28;20032;-47
2023/10/18 11:35:01;;;;;;;82.68;5.70;;;;;;;23.04;51.22;100384.84;5010729;28;20036;-46
2023/10/18 11:37:34;;;;;;;23.50;3.55;;;;;;;23.05;51.02;100378.19;5007109;28;20036;-45
2023/10/18 11:40:14;;;;;;;13.70;2.90;;;;;;;23.06;51.30;100376.22;5010281;28;20045;-46
2023/10/18 11:42:54;;;;;;;13.32;2.72;;;;;;;23.06;51.01;100360.44;5010377;28;20099;-45
2023/10/18 11:45:21;;;;;;;14.02;3.22;;;;;;;23.08;51.01;100354.63;5011628;28;20514;-53
2023/10/18 11:47:53;;;;;;;11.15;3.25;;;;;;;23.10;51.28;100349.56;5012339;28;20155;-47
2023/10/18 11:50:23;;;;;;;5.47;3.00;;;;;;;23.11;51.11;100347.63;5011951;28;20547;-44
2023/10/18 11:52:51;;;;;;;9.65;2.65;;;;;;;23.16;51.18;100352.97;5009991;28;20123;-45
2023/10/18 11:55:17;;;;;;;8.45;3.00;;;;;;;23.15;51.40;100341.13;5011584;28;20741;-43
2023/10/18 11:57:46;;;;;;;6.50;3.13;;;;;;;23.17;51.37;100340.84;5010513;28;20423;-42
2023/10/18 12:02:50;;;;;;;6.95;2.75;;;;;;;23.23;50.99;100312.69;5018147;28;20144;-54
2023/10/18 12:05:17;;;;;;;8.05;2.90;;;;;;;23.26;51.07;100325.03;5029951;28;21651;-47
2023/10/18 12:07:46;;;;;;;5.60;2.28;;;;;;;23.27;50.92;100320.34;5023522;28;20757;-46
2023/10/18 12:10:25;;;;;;;5.22;2.70;;;;;;;23.29;51.19;100318.88;5030678;28;20555;-53
2023/10/18 12:12:52;;;;;;;4.80;2.60;;;;;;;23.33;50.86;100314.31;5030530;28;20043;-52
2023/10/18 12:15:17;;;;;;;6.43;2.60;;;;;;;23.34;50.75;100302.13;5030531;28;21782;-52
2023/10/18 12:17:45;;;;;;;5.78;2.55;;;;;;;23.36;50.80;100307.31;5030422;28;20075;-52
2023/10/18 12:20:12;;;;;;;6.20;2.72;;;;;;;23.38;50.94;100291.22;5027932;28;20048;-53
2023/10/18 12:22:38;;;;;;;12.15;2.50;;;;;;;23.37;50.65;100284.88;5013600;28;20074;-49
2023/10/18 12:25:04;;;;;;;5.63;2.75;;;;;;;23.40;50.58;100289.75;5031277;28;20040;-47